Flight Track Log - Related Links

Times and Time Zones

All times are in EDT time to prevent confusion due to time zone crossing. See the ASQ5685 flight status page for this flight to view local times or setup timezone preferences in your user account.

Time Position Orientation Groundspeed Altitude Reporting Facility
EDT Latitude Longitude Course Direction KTS MPH feet Rate Location/Type
Thu 10:13:56 AM 33.6703 -84.5231 340° North 415 478 3,900  Level Atlanta Center
Thu 10:14:28 AM 33.6833 -84.5667 290° West 233 268 5,100 2,020 Climbing Atlanta TRACON
Thu 10:15:34 AM 33.7500 -84.5833 348° North 283 326 7,200 2,000 Climbing Atlanta TRACON
Thu 10:16:00 AM 33.8938 -84.2271 320° Northwest  Level FlightAware Approximate
Thu 10:16:34 AM 33.8333 -84.5667 North 308 354 9,300  Level Atlanta TRACON
Thu 10:17:00 AM 33.9887 -84.2918 339° North  Level FlightAware Approximate
Thu 10:17:56 AM 33.9478 -84.4919 28° Northeast 335 386 10,700  Level Atlanta Center
Thu 10:18:00 AM 34.0923 -84.3389 339° North  Level FlightAware Approximate
Thu 10:18:56 AM 34.0419 -84.4575 17° North 346 398 11,900  Level Atlanta Center
Thu 10:19:00 AM 34.1970 -84.3783 340° North  Level FlightAware Approximate
Thu 10:19:56 AM 34.1442 -84.4428 North 360 414 13,500  Level Atlanta Center
Thu 10:20:56 AM 34.2425 -84.4283 North 360 414 14,900 1,300 Climbing Atlanta Center
Thu 10:21:56 AM 34.3447 -84.4211 North 366 421 16,100 1,250 Climbing Atlanta Center
Thu 10:22:56 AM 34.4492 -84.4192 North 366 421 17,400 1,200 Climbing Atlanta Center
Thu 10:23:56 AM 34.5408 -84.4169 North 366 421 18,500 1,250 Climbing Atlanta Center
Thu 10:24:56 AM 34.6431 -84.4150 North 366 421 19,900 1,250 Climbing Atlanta Center
Thu 10:25:56 AM 34.7453 -84.4128 North 361 415 21,000 1,100 Climbing Atlanta Center
Thu 10:26:56 AM 34.8456 -84.4108 North 361 415 22,100 850 Climbing Atlanta Center
Thu 10:27:56 AM 34.9561 -84.4089 North 362 417 22,700 600 Climbing Atlanta Center
Thu 10:28:56 AM 35.0625 -84.4067 North 362 417 23,300 650 Climbing Atlanta Center
Thu 10:29:56 AM 35.1711 -84.4022 North 373 429 24,000 650 Climbing Atlanta Center
Thu 10:30:56 AM 35.2817 -84.4000 North 384 442 24,600 600 Climbing Atlanta Center
Thu 10:31:56 AM 35.3797 -84.3981 North 390 449 25,200 600 Climbing Atlanta Center
Thu 10:32:56 AM 35.4903 -84.3958 North 390 449 25,800 600 Climbing Atlanta Center
Thu 10:33:56 AM 35.5989 -84.3911 North 390 449 26,400 600 Climbing Atlanta Center
Thu 10:34:56 AM 35.7072 -84.3892 North 385 443 27,000 600 Climbing Atlanta Center
Thu 10:35:56 AM 35.8200 -84.3869 North 385 443 27,600 600 Climbing Atlanta Center
Thu 10:36:56 AM 35.9264 -84.3822 North 385 443 28,200 600 Climbing Atlanta Center
Thu 10:37:56 AM 36.0328 -84.3803 North 385 443 28,800 610 Climbing Atlanta Center
Thu 10:38:54 AM 36.1414 -84.3767 North 386 444 29,400 600 Climbing Indianapolis Center
Thu 10:39:56 AM 36.2481 -84.3742 North 385 443 30,000 581 Climbing Indianapolis Center
Thu 10:40:58 AM 36.3547 -84.3714 North 385 443 30,600 629 Climbing Indianapolis Center
Thu 10:42:00 AM 36.4756 -84.3353 14° North 394 453 31,300 634 Climbing Indianapolis Center
Thu 10:43:01 AM 36.5789 -84.2886 20° North 394 453 31,900 341 Climbing Indianapolis Center
Thu 10:44:03 AM 36.6836 -84.2425 19° North 395 455 32,000 48 Climbing Indianapolis Center
Thu 10:45:05 AM 36.7903 -84.1939 20° North 402 463 32,000  Level Indianapolis Center
Thu 10:46:07 AM 36.8978 -84.1450 20° North 408 470 32,000  Level Indianapolis Center
Thu 10:47:08 AM 37.0044 -84.0961 20° North 407 468 32,000  Level Indianapolis Center
Thu 10:48:10 AM 37.1317 -84.0381 20° North 414 476 32,000  Level Indianapolis Center
Thu 10:49:12 AM 37.2397 -83.9897 20° North 411 473 32,000  Level Indianapolis Center
Thu 10:50:14 AM 37.3458 -83.9367 22° Northeast 411 473 32,000  Level Indianapolis Center
Thu 10:51:15 AM 37.4389 -83.8425 39° Northeast 436 502 32,000  Level Indianapolis Center
Thu 10:52:17 AM 37.5253 -83.7453 42° Northeast 420 483 32,000  Level Indianapolis Center
Thu 10:53:19 AM 37.6128 -83.6494 41° Northeast 416 479 32,000  Level Indianapolis Center
Thu 10:54:21 AM 37.6975 -83.5539 42° Northeast 407 468 32,000  Level Indianapolis Center
Thu 10:55:22 AM 37.7808 -83.4567 43° Northeast 405 466 32,000  Level Indianapolis Center
Thu 10:56:24 AM 37.8697 -83.3294 48° Northeast 415 478 32,000  Level Indianapolis Center
Thu 10:57:26 AM 37.9406 -83.2178 51° Northeast 412 474 32,000  Level Indianapolis Center
Thu 10:58:27 AM 38.0142 -83.1058 50° Northeast 413 475 32,000  Level Indianapolis Center
Thu 10:59:29 AM 38.0869 -82.9931 51° Northeast 413 475 32,000  Level Indianapolis Center
Thu 11:00:31 AM 38.1622 -82.8825 49° Northeast 414 476 32,000 -146 Level Indianapolis Center
Thu 11:01:32 AM 38.2400 -82.7769 47° Northeast 409 471 31,700 -488 Descending Indianapolis Center
Thu 11:02:34 AM 38.3189 -82.6617 49° Northeast 429 494 31,000 -339 Descending Indianapolis Center
Thu 11:03:36 AM 38.4125 -82.5275 48° Northeast 432 497 31,000  Level Indianapolis Center
Thu 11:04:37 AM 38.4864 -82.4186 49° Northeast 429 494 31,000  Level Indianapolis Center
Thu 11:05:39 AM 38.5656 -82.3047 48° Northeast 428 493 31,000  Level Indianapolis Center
Thu 11:06:41 AM 38.6431 -82.1906 49° Northeast 426 490 31,000  Level Indianapolis Center
Thu 11:07:42 AM 38.7211 -82.0756 49° Northeast 426 490 31,000  Level Indianapolis Center
Thu 11:08:44 AM 38.8011 -81.9603 48° Northeast 430 495 31,000  Level Indianapolis Center
Thu 11:09:46 AM 38.8789 -81.8400 50° Northeast 434 499 31,000  Level Indianapolis Center
Thu 11:10:47 AM 38.9572 -81.7186 50° Northeast 436 502 31,000  Level Indianapolis Center
Thu 11:11:49 AM 39.0347 -81.5950 51° Northeast 439 505 31,000  Level Indianapolis Center
Thu 11:12:51 AM 39.1264 -81.4439 52° Northeast 445 512 31,000  Level Indianapolis Center
Thu 11:13:53 AM 39.1706 -81.2867 70° East 468 539 31,000  Level Indianapolis Center
Thu 11:14:54 AM 39.2128 -81.1303 71° East 463 533 31,000  Level Indianapolis Center
Thu 11:15:56 AM 39.2567 -80.9742 70° East 464 534 31,000  Level Indianapolis Center
Thu 11:16:58 AM 39.3003 -80.8175 70° East 462 532 31,000  Level Indianapolis Center
Thu 11:18:00 AM 39.3439 -80.6606 70° East 464 534 31,000  Level Indianapolis Center
Thu 11:19:01 AM 39.3886 -80.5028 70° East 467 537 31,000 -49 Level Indianapolis Center
Thu 11:20:03 AM 39.4672 -80.3703 52° Northeast 464 534 30,900 -629 Descending Indianapolis Center
Thu 11:21:05 AM 39.5600 -80.2042 54° Northeast 473 544 29,700 -1,065 Descending Indianapolis Center
Thu 11:22:07 AM 39.6317 -80.0772 54° Northeast 445 512 28,700 -977 Descending Indianapolis Center
Thu 11:22:31 AM 39.6614 -80.0383 45° Northeast 446 513 28,300 -829 Descending Cleveland Center
Thu 11:24:10 AM 39.6311 -79.7956 99° East 430 495 27,000 -484 Descending Indianapolis Center
Thu 11:25:12 AM 39.5867 -79.6575 113° Southeast 418 481 27,000  Level Indianapolis Center
Thu 11:25:59 AM 39.5569 -79.5536 110° East 406 467 27,000  Level Washington Center
Thu 11:26:57 AM 39.5094 -79.4111 113° Southeast 419 482 27,000 -303 Level Washington Center
Thu 11:27:58 AM 39.4542 -79.2469 114° Southeast 438 504 26,400 -1,230 Descending Washington Center
Thu 11:28:59 AM 39.4192 -79.0867 106° East 450 518 24,500 -2,269 Descending Washington Center
Thu 11:29:57 AM 39.3903 -78.9269 103° East 456 525 21,900 -2,542 Descending Washington Center
Thu 11:30:57 AM 39.3633 -78.7753 103° East 444 511 19,500 -2,410 Descending Washington Center
Thu 11:31:59 AM 39.3356 -78.6344 104° East 428 493 17,000 -2,410 Descending Washington Center
Thu 11:32:59 AM 39.3119 -78.4942 102° East 408 470 14,600 -2,441 Descending Washington Center
Thu 11:33:57 AM 39.2819 -78.3561 106° East 395 455 12,200 -1,881 Descending Washington Center
Thu 11:34:57 AM 39.2658 -78.2294 99° East 377 434 10,900 -1,438 Descending Washington Center
Thu 11:35:58 AM 39.2622 -78.1086 92° East 355 409 9,300 -1,537 Descending Washington Center
Thu 11:36:58 AM 39.2583 -77.9906 92° East 342 394 7,800 -1,488 Descending Washington Center
Thu 11:37:59 AM 39.2525 -77.8697 94° East 342 394 6,300 -1,412 Descending Washington Center
Thu 11:38:57 AM 39.2461 -77.7569 94° East 324 373 5,000 -661 Descending Washington Center
Thu 11:39:57 AM 39.2417 -77.6578 93° East 300 345 5,000  Level Washington Center
Thu 11:41:00 AM 39.2333 -77.5500 96° East 280 322 5,000 -256 Level Potomac TRACON
Thu 11:41:54 AM 39.2833 -77.5000 38° Northeast 213 245 4,500 -526 Descending Potomac TRACON
Thu 11:42:54 AM 39.2833 -77.4333 90° East 246 283 4,000 -198 Descending Potomac TRACON
Thu 11:43:55 AM 39.2333 -77.4333 180° South 176 203 4,100 -157 Climbing Potomac TRACON
Thu 11:44:49 AM 39.1833 -77.4333 180° South 178 205 3,700 -579 Descending Potomac TRACON
Thu 11:45:49 AM 39.1333 -77.4333 180° South 182 209 3,000 -700 Descending Potomac TRACON

Login

Don't have an account? Register now (free) for customized features, flight alerts, and more!